Wetterdaten: Sonntag / Montag, 03.09.2012
Datum Zeit Temperatur Luftfeuchte Regen Wind Richtung Richtung Taupunkt Windchill Windben
02.09.2012 23:00 13,2 C 94 % 0,0 l/m 0,0 km/h (0 Bft) O-NO 67 12,3 C 13,0 C 0,0 km/h (0 Bft)
02.09.2012 23:05 13,2 C 94 % 0,0 l/m 0,0 km/h (0 Bft) NO 45 12,3 C 13,1 C 0,0 km/h (0 Bft)
02.09.2012 23:10 13,2 C 94 % 0,0 l/m 0,0 km/h (0 Bft) S-SO 157 12,3 C 13,1 C 0,0 km/h (0 Bft)
02.09.2012 23:15 13,2 C 94 % 0,0 l/m 0,0 km/h (0 Bft) SO 135 12,3 C 13,1 C 0,0 km/h (0 Bft)
02.09.2012 23:20 13,2 C 94 % 0,0 l/m 0,0 km/h (0 Bft) NO 45 12,3 C 13,1 C 0,0 km/h (0 Bft)
02.09.2012 23:25 13,2 C 94 % 0,0 l/m 0,0 km/h (0 Bft) NO 45 12,3 C 13,1 C 0,0 km/h (0 Bft)
02.09.2012 23:30 13,1 C 94 % 0,0 l/m 0,0 km/h (0 Bft) N 360 12,2 C 13,1 C 0,0 km/h (0 Bft)
02.09.2012 23:35 13,2 C 94 % 0,0 l/m 0,0 km/h (0 Bft) O-NO 67 12,3 C 13,0 C 0,0 km/h (0 Bft)
02.09.2012 23:40 13,1 C 94 % 0,0 l/m 0,0 km/h (0 Bft) SO 135 12,2 C 13,0 C 0,0 km/h (0 Bft)
02.09.2012 23:45 13,1 C 94 % 0,0 l/m 0,0 km/h (0 Bft) O 90 12,2 C 13,0 C 0,0 km/h (0 Bft)
02.09.2012 23:50 13,1 C 94 % 0,0 l/m 0,0 km/h (0 Bft) O-SO 112 12,2 C 13,0 C 0,0 km/h (0 Bft)
02.09.2012 23:55 13,1 C 94 % 0,0 l/m 0,0 km/h (0 Bft) N-NW 337 12,2 C 13,0 C 0,0 km/h (0 Bft)
03.09.2012 00:00 13,0 C 94 % 0,0 l/m 0,0 km/h (0 Bft) N-NO 22 12,1 C 12,9 C 0,0 km/h (0 Bft)
03.09.2012 00:05 13,0 C 94 % 0,0 l/m 0,0 km/h (0 Bft) N-NO 22 12,1 C 12,9 C 0,0 km/h (0 Bft)
03.09.2012 00:10 13,0 C 94 % 0,0 l/m 0,0 km/h (0 Bft) N-NO 22 12,1 C 12,9 C 0,0 km/h (0 Bft)
03.09.2012 00:15 12,9 C 95 % 0,0 l/m 0,0 km/h (0 Bft) N-NO 22 12,1 C 12,8 C 0,0 km/h (0 Bft)
03.09.2012 00:20 12,9 C 95 % 0,0 l/m 0,0 km/h (0 Bft) N 360 12,1 C 12,8 C 0,0 km/h (0 Bft)
03.09.2012 00:25 12,9 C 95 % 0,0 l/m 0,0 km/h (0 Bft) N 360 12,1 C 12,8 C 0,0 km/h (0 Bft)
03.09.2012 00:30 12,9 C 95 % 0,0 l/m 0,0 km/h (0 Bft) SW 225 12,1 C 12,8 C 0,0 km/h (0 Bft)
03.09.2012 00:35 12,9 C 95 % 0,0 l/m 0,0 km/h (0 Bft) W 270 12,1 C 12,8 C 0,0 km/h (0 Bft)
03.09.2012 00:40 12,8 C 95 % 0,0 l/m 0,0 km/h (0 Bft) SO 135 12,0 C 12,8 C 0,0 km/h (0 Bft)
03.09.2012 00:45 12,9 C 95 % 0,0 l/m 0,0 km/h (0 Bft) O-NO 67 12,1 C 12,8 C 0,0 km/h (0 Bft)
03.09.2012 00:50 12,8 C 95 % 0,0 l/m 0,0 km/h (0 Bft) S-SW 202 12,0 C 12,8 C 0,0 km/h (0 Bft)
03.09.2012 00:55 12,9 C 95 % 0,0 l/m 0,0 km/h (0 Bft) NO 45 12,1 C 12,8 C 0,0 km/h (0 Bft)
03.09.2012 01:00 12,8 C 95 % 0,0 l/m 0,0 km/h (0 Bft) N-NO 22 12,0 C 12,7 C 0,0 km/h (0 Bft)
03.09.2012 01:05 12,8 C 95 % 0,0 l/m 0,0 km/h (0 Bft) N-NO 22 12,0 C 12,7 C 0,0 km/h (0 Bft)
03.09.2012 01:10 12,8 C 95 % 0,0 l/m 0,3 km/h (0 Bft) NO 45 12,0 C 12,7 C 0,0 km/h (0 Bft)
03.09.2012 01:15 12,8 C 95 % 0,0 l/m 0,3 km/h (0 Bft) N 360 12,0 C 12,7 C 0,0 km/h (0 Bft)
03.09.2012 01:20 12,9 C 95 % 0,0 l/m 0,0 km/h (0 Bft) N 360 12,1 C 12,7 C 0,0 km/h (0 Bft)
03.09.2012 01:25 12,8 C 95 % 0,0 l/m 0,0 km/h (0 Bft) N 360 12,0 C 12,7 C 0,0 km/h (0 Bft)
03.09.2012 01:30 12,8 C 95 % 0,0 l/m 0,0 km/h (0 Bft) N 360 12,0 C 12,7 C 0,0 km/h (0 Bft)
03.09.2012 01:35 12,8 C 95 % 0,0 l/m 0,0 km/h (0 Bft) N-NO 22 12,0 C 12,7 C 0,0 km/h (0 Bft)
03.09.2012 01:40 12,8 C 95 % 0,0 l/m 0,0 km/h (0 Bft) SO 135 12,0 C 12,7 C 0,0 km/h (0 Bft)
03.09.2012 01:45 12,8 C 95 % 0,0 l/m 0,2 km/h (0 Bft) SO 135 12,0 C 12,7 C 2,3 km/h (1 Bft)
03.09.2012 01:50 12,9 C 95 % 0,0 l/m 0,6 km/h (0 Bft) SO 135 12,1 C 12,7 C 3,7 km/h (1 Bft)
03.09.2012 01:55 12,9 C 95 % 0,0 l/m 0,6 km/h (0 Bft) N-NW 337 12,1 C 12,7 C 0,0 km/h (0 Bft)
03.09.2012 02:00 12,9 C 95 % 0,0 l/m 0,8 km/h (0 Bft) S-SW 202 12,1 C 12,8 C 1,9 km/h (1 Bft)
03.09.2012 02:05 12,9 C 95 % 0,0 l/m 0,6 km/h (0 Bft) N-NW 337 12,1 C 12,8 C 0,0 km/h (0 Bft)
03.09.2012 02:10 12,9 C 95 % 0,0 l/m 0,2 km/h (0 Bft) S-SW 202 12,1 C 12,8 C 0,0 km/h (0 Bft)
03.09.2012 02:15 12,9 C 95 % 0,0 l/m 0,0 km/h (0 Bft) S 180 12,1 C 12,8 C 0,0 km/h (0 Bft)
03.09.2012 02:20 12,9 C 95 % 0,0 l/m 0,2 km/h (0 Bft) W-SW 247 12,1 C 12,8 C 3,9 km/h (1 Bft)
03.09.2012 02:25 12,9 C 95 % 0,0 l/m 0,8 km/h (0 Bft) W 270 12,1 C 12,8 C 3,4 km/h (1 Bft)
03.09.2012 02:30 13,0 C 94 % 0,0 l/m 0,8 km/h (0 Bft) S 180 12,1 C 12,8 C 0,0 km/h (0 Bft)
03.09.2012 02:35 13,0 C 94 % 0,0 l/m 0,6 km/h (0 Bft) SO 135 12,1 C 12,8 C 0,0 km/h (0 Bft)
03.09.2012 02:40 12,9 C 95 % 0,0 l/m 0,8 km/h (0 Bft) W 270 12,1 C 12,8 C 3,9 km/h (1 Bft)
03.09.2012 02:45 12,9 C 95 % 0,0 l/m 0,8 km/h (0 Bft) N-NW 337 12,1 C 12,8 C 0,0 km/h (0 Bft)
03.09.2012 02:50 12,9 C 95 % 0,0 l/m 0,8 km/h (0 Bft) W-NW 292 12,1 C 12,8 C 1,8 km/h (1 Bft)
03.09.2012 02:55 12,9 C 95 % 0,0 l/m 0,2 km/h (0 Bft) S 180 12,1 C 12,8 C 0,0 km/h (0 Bft)
03.09.2012 03:00 12,9 C 95 % 0,0 l/m 0,2 km/h (0 Bft) W 270 12,1 C 12,8 C 0,0 km/h (0 Bft)
03.09.2012 03:05 12,9 C 95 % 0,0 l/m 0,0 km/h (0 Bft) N 360 12,1 C 12,8 C 0,0 km/h (0 Bft)
03.09.2012 03:10 12,9 C 95 % 0,0 l/m 0,0 km/h (0 Bft) S-SO 157 12,1 C 12,8 C 0,0 km/h (0 Bft)
03.09.2012 03:15 12,9 C 95 % 0,0 l/m 0,0 km/h (0 Bft) S-SO 157 12,1 C 12,8 C 0,0 km/h (0 Bft)
03.09.2012 03:20 12,9 C 95 % 0,0 l/m 0,0 km/h (0 Bft) SO 135 12,1 C 12,8 C 0,0 km/h (0 Bft)
03.09.2012 03:25 12,9 C 95 % 0,0 l/m 0,0 km/h (0 Bft) N-NO 22 12,1 C 12,8 C 0,0 km/h (0 Bft)
03.09.2012 03:30 12,9 C 95 % 0,0 l/m 0,0 km/h (0 Bft) O-NO 67 12,1 C 12,8 C 0,0 km/h (0 Bft)
03.09.2012 03:35 12,9 C 95 % 0,0 l/m 0,0 km/h (0 Bft) NO 45 12,1 C 12,8 C 0,0 km/h (0 Bft)
03.09.2012 03:40 12,9 C 95 % 0,0 l/m 0,0 km/h (0 Bft) W-SW 247 12,1 C 12,8 C 0,0 km/h (0 Bft)
03.09.2012 03:45 12,9 C 95 % 0,0 l/m 0,0 km/h (0 Bft) W-SW 247 12,1 C 12,8 C 0,0 km/h (0 Bft)
03.09.2012 03:50 12,9 C 95 % 0,0 l/m 0,0 km/h (0 Bft) N-NO 22 12,1 C 12,8 C 0,0 km/h (0 Bft)
03.09.2012 03:55 12,9 C 95 % 0,0 l/m 0,0 km/h (0 Bft) W 270 12,1 C 12,8 C 0,0 km/h (0 Bft)
03.09.2012 04:00 12,9 C 95 % 0,0 l/m 0,0 km/h (0 Bft) N-NW 337 12,1 C 12,8 C 1,6 km/h (1 Bft)
03.09.2012 04:05 13,0 C 94 % 0,0 l/m 0,3 km/h (0 Bft) W-SW 247 12,1 C 12,8 C 3,7 km/h (1 Bft)
03.09.2012 04:10 12,9 C 95 % 0,0 l/m 0,3 km/h (0 Bft) N-NO 22 12,1 C 12,8 C 0,0 km/h (0 Bft)
03.09.2012 04:15 12,9 C 95 % 0,0 l/m 0,8 km/h (0 Bft) W 270 12,1 C 12,8 C 2,6 km/h (1 Bft)
03.09.2012 04:20 12,9 C 95 % 0,0 l/m 0,8 km/h (0 Bft) N-NW 337 12,1 C 12,8 C 0,0 km/h (0 Bft)
03.09.2012 04:25 12,9 C 95 % 0,0 l/m 0,5 km/h (0 Bft) NW 315 12,1 C 12,8 C 1,9 km/h (1 Bft)
03.09.2012 04:30 12,9 C 95 % 0,0 l/m 0,8 km/h (0 Bft) W-NW 292 12,1 C 12,8 C 0,0 km/h (0 Bft)
03.09.2012 04:35 12,9 C 95 % 0,0 l/m 1,8 km/h (1 Bft) O-NO 67 12,1 C 12,8 C 0,0 km/h (0 Bft)
03.09.2012 04:40 12,8 C 95 % 0,0 l/m 1,1 km/h (1 Bft) W-SW 247 12,0 C 12,8 C 5,0 km/h (1 Bft)
03.09.2012 04:45 12,8 C 95 % 0,0 l/m 0,8 km/h (0 Bft) NW 315 12,0 C 12,8 C 3,2 km/h (1 Bft)
03.09.2012 04:50 12,8 C 95 % 0,0 l/m 1,3 km/h (1 Bft) W-NW 292 12,0 C 12,8 C 6,3 km/h (2 Bft)
03.09.2012 04:55 12,8 C 95 % 0,0 l/m 1,9 km/h (1 Bft) N-NW 337 12,0 C 12,8 C 3,7 km/h (1 Bft)
03.09.2012 05:00 12,8 C 95 % 0,0 l/m 2,3 km/h (1 Bft) W-NW 292 12,0 C 12,7 C 1,6 km/h (1 Bft)
03.09.2012 05:05 12,8 C 95 % 0,0 l/m 1,9 km/h (1 Bft) S 180 12,0 C 12,7 C 0,0 km/h (0 Bft)
03.09.2012 05:10 12,8 C 95 % 0,0 l/m 1,3 km/h (1 Bft) W-SW 247 12,0 C 12,7 C 0,0 km/h (0 Bft)
03.09.2012 05:15 12,8 C 95 % 0,0 l/m 1,1 km/h (1 Bft) NW 315 12,0 C 12,8 C 2,3 km/h (1 Bft)
03.09.2012 05:20 12,8 C 95 % 0,0 l/m 1,3 km/h (1 Bft) SW 225 12,0 C 12,8 C 4,3 km/h (1 Bft)
03.09.2012 05:25 12,8 C 95 % 0,0 l/m 1,9 km/h (1 Bft) W-NW 292 12,0 C 12,8 C 1,6 km/h (1 Bft)
03.09.2012 05:30 12,8 C 95 % 0,0 l/m 2,3 km/h (1 Bft) N-NW 337 12,0 C 12,8 C 6,9 km/h (2 Bft)
03.09.2012 05:35 12,8 C 95 % 0,0 l/m 2,1 km/h (1 Bft) W 270 12,0 C 12,8 C 2,3 km/h (1 Bft)
03.09.2012 05:40 12,8 C 95 % 0,0 l/m 2,3 km/h (1 Bft) W-NW 292 12,0 C 12,8 C 5,3 km/h (1 Bft)
03.09.2012 05:45 12,8 C 95 % 0,0 l/m 2,3 km/h (1 Bft) N 360 12,0 C 12,8 C 3,1 km/h (1 Bft)
03.09.2012 05:50 12,8 C 95 % 0,0 l/m 3,1 km/h (1 Bft) W-NW 292 12,0 C 12,8 C 2,9 km/h (1 Bft)
03.09.2012 05:55 12,8 C 95 % 0,0 l/m 3,1 km/h (1 Bft) W 270 12,0 C 12,8 C 2,1 km/h (1 Bft)
03.09.2012 06:00 12,7 C 95 % 0,0 l/m 2,9 km/h (1 Bft) W-SW 247 11,9 C 12,7 C 6,1 km/h (2 Bft)
03.09.2012 06:05 12,7 C 95 % 0,0 l/m 2,6 km/h (1 Bft) W-NW 292 11,9 C 12,7 C 4,3 km/h (1 Bft)
03.09.2012 06:10 12,8 C 95 % 0,0 l/m 2,1 km/h (1 Bft) W-SW 247 12,0 C 12,7 C 1,9 km/h (1 Bft)
03.09.2012 06:15 12,7 C 95 % 0,0 l/m 1,8 km/h (1 Bft) W-NW 292 11,9 C 12,7 C 0,0 km/h (0 Bft)
03.09.2012 06:20 12,7 C 95 % 0,0 l/m 2,6 km/h (1 Bft) NW 315 11,9 C 12,7 C 3,4 km/h (1 Bft)
03.09.2012 06:25 12,7 C 95 % 0,0 l/m 2,6 km/h (1 Bft) NW 315 11,9 C 12,7 C 2,6 km/h (1 Bft)
03.09.2012 06:30 12,7 C 95 % 0,0 l/m 2,1 km/h (1 Bft) N-NW 337 11,9 C 12,7 C 2,7 km/h (1 Bft)
03.09.2012 06:35 12,7 C 95 % 0,0 l/m 2,1 km/h (1 Bft) W-NW 292 11,9 C 12,7 C 2,1 km/h (1 Bft)
03.09.2012 06:40 12,7 C 95 % 0,0 l/m 2,1 km/h (1 Bft) W 270 11,9 C 12,7 C 5,3 km/h (1 Bft)
03.09.2012 06:45 12,7 C 95 % 0,0 l/m 1,9 km/h (1 Bft) N 360 11,9 C 12,7 C 2,4 km/h (1 Bft)
03.09.2012 06:50 12,7 C 95 % 0,0 l/m 1,8 km/h (1 Bft) W 270 11,9 C 12,7 C 3,9 km/h (1 Bft)
03.09.2012 06:55 12,8 C 95 % 0,0 l/m 1,9 km/h (1 Bft) W-NW 292 12,0 C 12,7 C 3,2 km/h (1 Bft)
03.09.2012 07:00 12,8 C 95 % 0,0 l/m 2,3 km/h (1 Bft) W-NW 292 12,0 C 12,8 C 1,8 km/h (1 Bft)
03.09.2012 07:05 12,8 C 95 % 0,0 l/m 2,1 km/h (1 Bft) W-NW 292 12,0 C 12,8 C 1,9 km/h (1 Bft)
03.09.2012 07:10 12,8 C 95 % 0,0 l/m 1,1 km/h (1 Bft) NW 315 12,0 C 12,8 C 0,0 km/h (0 Bft)
03.09.2012 07:15 12,8 C 95 % 0,0 l/m 0,6 km/h (0 Bft) N-NW 337 12,0 C 12,8 C 0,0 km/h (0 Bft)
03.09.2012 07:20 12,8 C 95 % 0,0 l/m 1,8 km/h (1 Bft) W-NW 292 12,0 C 12,8 C 3,7 km/h (1 Bft)
03.09.2012 07:25 12,8 C 95 % 0,0 l/m 2,3 km/h (1 Bft) W-NW 292 12,0 C 12,8 C 1,6 km/h (1 Bft)
03.09.2012 07:30 12,9 C 95 % 0,0 l/m 1,9 km/h (1 Bft) W-SW 247 12,1 C 12,8 C 3,5 km/h (1 Bft)
03.09.2012 07:35 12,9 C 95 % 0,0 l/m 1,6 km/h (1 Bft) N-NW 337 12,1 C 12,8 C 3,9 km/h (1 Bft)
03.09.2012 07:40 13,0 C 95 % 0,0 l/m 2,4 km/h (1 Bft) W-NW 292 12,2 C 12,9 C 3,4 km/h (1 Bft)
03.09.2012 07:45 13,1 C 95 % 0,0 l/m 3,1 km/h (1 Bft) W 270 12,3 C 12,9 C 2,1 km/h (1 Bft)
03.09.2012 07:50 13,1 C 95 % 0,0 l/m 3,1 km/h (1 Bft) NW 315 12,3 C 13,0 C 2,9 km/h (1 Bft)
03.09.2012 07:55 13,1 C 95 % 0,0 l/m 3,5 km/h (1 Bft) W 270 12,3 C 13,0 C 5,3 km/h (1 Bft)
03.09.2012 08:00 13,2 C 95 % 0,0 l/m 4,0 km/h (1 Bft) W-NW 292 12,4 C 13,1 C 6,6 km/h (2 Bft)
03.09.2012 08:05 13,2 C 95 % 0,0 l/m 3,7 km/h (1 Bft) W-SW 247 12,4 C 13,1 C 6,0 km/h (2 Bft)
03.09.2012 08:10 13,3 C 95 % 0,0 l/m 3,5 km/h (1 Bft) N-NW 337 12,5 C 13,2 C 4,5 km/h (1 Bft)
03.09.2012 08:15 13,3 C 95 % 0,0 l/m 2,9 km/h (1 Bft) N-NW 337 12,5 C 13,2 C 1,8 km/h (1 Bft)
03.09.2012 08:20 13,3 C 95 % 0,0 l/m 2,3 km/h (1 Bft) N-NW 337 12,5 C 13,2 C 3,7 km/h (1 Bft)
03.09.2012 08:25 13,3 C 94 % 0,0 l/m 2,4 km/h (1 Bft) W-NW 292 12,4 C 13,2 C 4,3 km/h (1 Bft)
03.09.2012 08:30 13,2 C 94 % 0,0 l/m 2,7 km/h (1 Bft) W-SW 247 12,3 C 13,2 C 5,3 km/h (1 Bft)
03.09.2012 08:35 13,2 C 94 % 0,0 l/m 2,7 km/h (1 Bft) W-NW 292 12,3 C 13,2 C 5,0 km/h (1 Bft)
03.09.2012 08:40 13,3 C 94 % 0,0 l/m 2,3 km/h (1 Bft) W-NW 292 12,4 C 13,2 C 3,4 km/h (1 Bft)
03.09.2012 08:45 13,3 C 94 % 0,0 l/m 1,9 km/h (1 Bft) N-NW 337 12,4 C 13,2 C 0,0 km/h (0 Bft)
03.09.2012 08:50 13,4 C 94 % 0,0 l/m 1,6 km/h (1 Bft) W-NW 292 12,5 C 13,3 C 0,0 km/h (0 Bft)
03.09.2012 08:55 13,4 C 94 % 0,0 l/m 1,4 km/h (1 Bft) W-SW 247 12,5 C 13,4 C 1,6 km/h (1 Bft)
03.09.2012 09:00 13,5 C 94 % 0,0 l/m 1,3 km/h (1 Bft) S-SW 202 12,6 C 13,5 C 0,0 km/h (0 Bft)
03.09.2012 09:05 13,6 C 94 % 0,0 l/m 1,4 km/h (1 Bft) W-NW 292 12,7 C 13,6 C 3,5 km/h (1 Bft)
03.09.2012 09:10 13,7 C 94 % 0,0 l/m 1,4 km/h (1 Bft) W-NW 292 12,8 C 13,7 C 2,1 km/h (1 Bft)
03.09.2012 09:15 13,6 C 94 % 0,0 l/m 1,6 km/h (1 Bft) W 270 12,7 C 13,8 C 1,6 km/h (1 Bft)
03.09.2012 09:20 13,6 C 94 % 0,0 l/m 1,8 km/h (1 Bft) W-SW 247 12,7 C 13,8 C 2,3 km/h (1 Bft)
03.09.2012 09:25 13,6 C 94 % 0,0 l/m 1,3 km/h (1 Bft) W-SW 247 12,7 C 13,8 C 2,7 km/h (1 Bft)
03.09.2012 09:30 13,6 C 94 % 0,0 l/m 1,9 km/h (1 Bft) W-SW 247 12,7 C 13,8 C 3,1 km/h (1 Bft)
03.09.2012 09:35 13,7 C 94 % 0,0 l/m 2,3 km/h (1 Bft) W-SW 247 12,8 C 13,9 C 3,5 km/h (1 Bft)
03.09.2012 09:40 13,7 C 94 % 0,0 l/m 2,1 km/h (1 Bft) NW 315 12,8 C 13,9 C 3,4 km/h (1 Bft)
03.09.2012 09:45 14,0 C 94 % 0,0 l/m 2,4 km/h (1 Bft) W 270 13,0 C 14,1 C 3,1 km/h (1 Bft)
03.09.2012 09:50 14,2 C 93 % 0,0 l/m 1,4 km/h (1 Bft) N-NW 337 13,1 C 14,5 C 4,2 km/h (1 Bft)
03.09.2012 09:55 14,3 C 93 % 0,0 l/m 1,8 km/h (1 Bft) N 360 13,2 C 14,7 C 1,8 km/h (1 Bft)
03.09.2012 10:00 14,3 C 93 % 0,0 l/m 2,3 km/h (1 Bft) N 360 13,2 C 14,8 C 3,4 km/h (1 Bft)
03.09.2012 10:05 14,3 C 93 % 0,0 l/m 1,9 km/h (1 Bft) N 360 13,2 C 14,8 C 2,6 km/h (1 Bft)
03.09.2012 10:10 14,4 C 93 % 0,0 l/m 2,7 km/h (1 Bft) N-NW 337 13,3 C 14,9 C 3,9 km/h (1 Bft)
03.09.2012 10:15 14,5 C 92 % 0,0 l/m 2,9 km/h (1 Bft) W-NW 292 13,2 C 15,0 C 2,7 km/h (1 Bft)
03.09.2012 10:20 14,6 C 92 % 0,0 l/m 2,1 km/h (1 Bft) N-NW 337 13,3 C 15,2 C 3,4 km/h (1 Bft)
03.09.2012 10:25 14,7 C 91 % 0,0 l/m 2,7 km/h (1 Bft) N-NO 22 13,2 C 15,3 C 5,8 km/h (2 Bft)
03.09.2012 10:30 14,9 C 91 % 0,0 l/m 2,4 km/h (1 Bft) N-NW 337 13,4 C 15,6 C 8,5 km/h (2 Bft)
03.09.2012 10:35 14,7 C 90 % 0,0 l/m 1,8 km/h (1 Bft) N-NW 337 13,1 C 15,6 C 0,0 km/h (0 Bft)
03.09.2012 10:40 14,4 C 90 % 0,0 l/m 2,6 km/h (1 Bft) O-NO 67 12,8 C 15,3 C 2,3 km/h (1 Bft)
03.09.2012 10:45 14,4 C 90 % 0,0 l/m 2,6 km/h (1 Bft) N 360 12,8 C 15,0 C 0,0 km/h (0 Bft)
03.09.2012 10:50 14,7 C 90 % 0,0 l/m 1,6 km/h (1 Bft) NW 315 13,1 C 15,1 C 1,9 km/h (1 Bft)
03.09.2012 10:55 14,9 C 89 % 0,0 l/m 1,6 km/h (1 Bft) W-SW 247 13,1 C 15,4 C 4,5 km/h (1 Bft)
03.09.2012 11:00 15,1 C 89 % 0,0 l/m 2,9 km/h (1 Bft) W-NW 292 13,3 C 15,8 C 2,1 km/h (1 Bft)
03.09.2012 11:05 15,2 C 88 % 0,0 l/m 2,6 km/h (1 Bft) W-NW 292 13,2 C 16,0 C 2,3 km/h (1 Bft)
03.09.2012 11:10 15,2 C 88 % 0,0 l/m 2,1 km/h (1 Bft) W 270 13,2 C 16,0 C 2,4 km/h (1 Bft)
03.09.2012 11:15 15,1 C 88 % 0,0 l/m 2,4 km/h (1 Bft) N-NO 22 13,1 C 16,0 C 7,1 km/h (2 Bft)
03.09.2012 11:20 15,0 C 88 % 0,0 l/m 2,1 km/h (1 Bft) W-NW 292 13,0 C 15,8 C 3,2 km/h (1 Bft)
03.09.2012 11:25 15,2 C 89 % 0,0 l/m 2,6 km/h (1 Bft) W-SW 247 13,4 C 15,8 C 5,6 km/h (1 Bft)
03.09.2012 11:30 15,3 C 89 % 0,0 l/m 3,1 km/h (1 Bft) W-NW 292 13,5 C 15,8 C 5,6 km/h (1 Bft)
03.09.2012 11:35 15,5 C 89 % 0,0 l/m 3,1 km/h (1 Bft) W-NW 292 13,7 C 15,9 C 8,0 km/h (2 Bft)
03.09.2012 11:40 15,7 C 88 % 0,0 l/m 2,6 km/h (1 Bft) N 360 13,7 C 16,1 C 4,5 km/h (1 Bft)
03.09.2012 11:45 15,9 C 88 % 0,0 l/m 2,4 km/h (1 Bft) S 180 13,9 C 16,3 C 2,9 km/h (1 Bft)
03.09.2012 11:50 15,7 C 87 % 0,0 l/m 2,3 km/h (1 Bft) W 270 13,5 C 16,4 C 0,0 km/h (0 Bft)
03.09.2012 11:55 15,7 C 86 % 0,0 l/m 2,7 km/h (1 Bft) N 360 13,4 C 16,5 C 4,3 km/h (1 Bft)
03.09.2012 12:00 15,6 C 86 % 0,0 l/m 2,4 km/h (1 Bft) W-SW 247 13,3 C 16,5 C 1,6 km/h (1 Bft)
03.09.2012 12:05 15,7 C 86 % 0,0 l/m 2,1 km/h (1 Bft) N-NW 337 13,4 C 16,5 C 3,9 km/h (1 Bft)
03.09.2012 12:10 15,5 C 86 % 0,0 l/m 2,7 km/h (1 Bft) W-SW 247 13,2 C 16,4 C 10,6 km/h (2 Bft)
03.09.2012 12:15 15,8 C 87 % 0,0 l/m 2,9 km/h (1 Bft) N-NO 22 13,6 C 16,3 C 1,6 km/h (1 Bft)
03.09.2012 12:20 16,0 C 87 % 0,0 l/m 1,8 km/h (1 Bft) W-SW 247 13,8 C 16,7 C 3,9 km/h (1 Bft)
03.09.2012 12:25 16,0 C 86 % 0,0 l/m 1,1 km/h (1 Bft) NW 315 13,7 C 16,8 C 2,6 km/h (1 Bft)
03.09.2012 12:30 15,9 C 87 % 0,0 l/m 2,1 km/h (1 Bft) N-NW 337 13,7 C 16,8 C 6,3 km/h (2 Bft)
03.09.2012 12:35 15,9 C 87 % 0,0 l/m 2,9 km/h (1 Bft) NO 45 13,7 C 16,6 C 0,0 km/h (0 Bft)
03.09.2012 12:40 16,1 C 87 % 0,0 l/m 2,6 km/h (1 Bft) N 360 13,9 C 16,6 C 0,0 km/h (0 Bft)
03.09.2012 12:45 16,4 C 87 % 0,0 l/m 1,1 km/h (1 Bft) NW 315 14,2 C 17,0 C 0,0 km/h (0 Bft)
03.09.2012 12:50 16,8 C 86 % 0,0 l/m 1,6 km/h (1 Bft) NO 45 14,4 C 17,7 C 2,9 km/h (1 Bft)
03.09.2012 12:55 16,6 C 84 % 0,0 l/m 2,1 km/h (1 Bft) N-NW 337 13,9 C 17,7 C 5,3 km/h (1 Bft)
03.09.2012 13:00 16,6 C 86 % 0,0 l/m 2,3 km/h (1 Bft) N-NW 337 14,2 C 17,8 C 2,1 km/h (1 Bft)
03.09.2012 13:05 16,5 C 86 % 0,0 l/m 1,9 km/h (1 Bft) W-SW 247 14,1 C 17,6 C 1,6 km/h (1 Bft)
03.09.2012 13:10 16,4 C 86 % 0,0 l/m 0,8 km/h (0 Bft) NW 315 14,1 C 17,6 C 1,8 km/h (1 Bft)
03.09.2012 13:15 16,6 C 87 % 0,0 l/m 0,5 km/h (0 Bft) N 360 14,4 C 17,5 C 0,0 km/h (0 Bft)
03.09.2012 13:20 16,5 C 86 % 0,0 l/m 0,8 km/h (0 Bft) W-SW 247 14,1 C 17,5 C 0,0 km/h (0 Bft)
03.09.2012 13:25 16,7 C 86 % 0,0 l/m 0,6 km/h (0 Bft) N 360 14,3 C 17,6 C 0,0 km/h (0 Bft)
03.09.2012 13:30 16,9 C 85 % 0,0 l/m 1,8 km/h (1 Bft) N-NW 337 14,4 C 17,9 C 2,4 km/h (1 Bft)
03.09.2012 13:35 17,2 C 85 % 0,0 l/m 1,9 km/h (1 Bft) N 360 14,7 C 18,2 C 0,0 km/h (0 Bft)
03.09.2012 13:40 17,2 C 84 % 0,0 l/m 1,6 km/h (1 Bft) NW 315 14,5 C 18,4 C 3,1 km/h (1 Bft)
03.09.2012 13:45 17,3 C 84 % 0,0 l/m 1,4 km/h (1 Bft) S-SW 202 14,6 C 18,6 C 3,4 km/h (1 Bft)
03.09.2012 13:50 17,0 C 83 % 0,0 l/m 2,3 km/h (1 Bft) W-SW 247 14,1 C 18,6 C 6,0 km/h (2 Bft)
03.09.2012 13:55 16,8 C 83 % 0,0 l/m 2,6 km/h (1 Bft) N-NW 337 13,9 C 18,3 C 1,6 km/h (1 Bft)
03.09.2012 14:00 16,6 C 84 % 0,0 l/m 2,6 km/h (1 Bft) W-SW 247 13,9 C 17,9 C 4,7 km/h (1 Bft)
03.09.2012 14:05 16,5 C 83 % 0,0 l/m 2,4 km/h (1 Bft) N-NW 337 13,6 C 17,6 C 5,3 km/h (1 Bft)
03.09.2012 14:10 16,5 C 82 % 0,0 l/m 3,2 km/h (1 Bft) S 180 13,4 C 17,3 C 2,4 km/h (1 Bft)
03.09.2012 14:15 16,5 C 83 % 0,0 l/m 3,5 km/h (1 Bft) N-NO 22 13,6 C 17,2 C 2,9 km/h (1 Bft)
03.09.2012 14:20 16,9 C 81 % 0,0 l/m 3,1 km/h (1 Bft) N 360 13,6 C 17,3 C 1,8 km/h (1 Bft)
03.09.2012 14:25 17,1 C 82 % 0,0 l/m 2,9 km/h (1 Bft) W 270 14,0 C 17,7 C 0,0 km/h (0 Bft)
03.09.2012 14:30 17,2 C 81 % 0,0 l/m 3,7 km/h (1 Bft) W 270 13,9 C 18,1 C 8,0 km/h (2 Bft)
03.09.2012 14:35 17,3 C 83 % 0,0 l/m 4,2 km/h (1 Bft) W-NW 292 14,4 C 18,2 C 7,1 km/h (2 Bft)
03.09.2012 14:40 17,1 C 79 % 0,0 l/m 4,5 km/h (1 Bft) W 270 13,4 C 18,1 C 5,8 km/h (2 Bft)
03.09.2012 14:45 16,9 C 81 % 0,0 l/m 4,7 km/h (1 Bft) W 270 13,6 C 18,0 C 6,4 km/h (2 Bft)
03.09.2012 14:50 16,9 C 84 % 0,0 l/m 3,5 km/h (1 Bft) W-SW 247 14,2 C 17,7 C 5,1 km/h (1 Bft)
03.09.2012 14:55 16,8 C 83 % 0,0 l/m 3,5 km/h (1 Bft) SW 225 13,9 C 17,6 C 4,5 km/h (1 Bft)
03.09.2012 15:00 16,6 C 82 % 0,0 l/m 4,2 km/h (1 Bft) N 360 13,5 C 17,3 C 2,4 km/h (1 Bft)
03.09.2012 15:05 16,7 C 83 % 0,0 l/m 3,4 km/h (1 Bft) W-NW 292 13,8 C 17,3 C 3,5 km/h (1 Bft)
03.09.2012 15:10 16,7 C 83 % 0,0 l/m 3,1 km/h (1 Bft) W-NW 292 13,8 C 17,5 C 10,8 km/h (2 Bft)
03.09.2012 15:15 16,9 C 83 % 0,0 l/m 3,7 km/h (1 Bft) W-NW 292 14,0 C 17,5 C 5,5 km/h (1 Bft)
03.09.2012 15:20 17,1 C 82 % 0,0 l/m 4,3 km/h (1 Bft) W-NW 292 14,0 C 17,7 C 8,0 km/h (2 Bft)
03.09.2012 15:25 16,9 C 80 % 0,0 l/m 4,5 km/h (1 Bft) W 270 13,4 C 17,7 C 7,6 km/h (2 Bft)
03.09.2012 15:30 16,9 C 83 % 0,0 l/m 3,2 km/h (1 Bft) W-NW 292 14,0 C 17,6 C 3,7 km/h (1 Bft)
03.09.2012 15:35 16,7 C 83 % 0,0 l/m 2,6 km/h (1 Bft) W-NW 292 13,8 C 17,6 C 6,3 km/h (2 Bft)
03.09.2012 15:40 16,7 C 82 % 0,0 l/m 3,9 km/h (1 Bft) NW 315 13,6 C 17,4 C 6,9 km/h (2 Bft)
03.09.2012 15:45 16,6 C 81 % 0,0 l/m 4,7 km/h (1 Bft) S-SW 202 13,3 C 17,3 C 6,4 km/h (2 Bft)
03.09.2012 15:50 16,5 C 82 % 0,0 l/m 4,8 km/h (1 Bft) W-SW 247 13,4 C 17,1 C 11,9 km/h (2 Bft)
03.09.2012 15:55 16,5 C 83 % 0,0 l/m 4,5 km/h (1 Bft) NW 315 13,6 C 17,0 C 1,8 km/h (1 Bft)
03.09.2012 16:00 16,5 C 83 % 0,0 l/m 3,2 km/h (1 Bft) W 270 13,6 C 17,0 C 5,5 km/h (1 Bft)
03.09.2012 16:05 16,5 C 83 % 0,0 l/m 2,9 km/h (1 Bft) W-NW 292 13,6 C 17,0 C 1,8 km/h (1 Bft)
03.09.2012 16:10 16,4 C 84 % 0,0 l/m 2,3 km/h (1 Bft) S-SO 157 13,7 C 16,9 C 2,9 km/h (1 Bft)
03.09.2012 16:15 16,4 C 83 % 0,0 l/m 1,3 km/h (1 Bft) N-NW 337 13,5 C 16,8 C 2,1 km/h (1 Bft)
03.09.2012 16:20 16,4 C 84 % 0,0 l/m 1,4 km/h (1 Bft) NW 315 13,7 C 16,8 C 3,1 km/h (1 Bft)
03.09.2012 16:25 16,4 C 85 % 0,0 l/m 1,0 km/h (0 Bft) N-NW 337 13,9 C 16,8 C 2,3 km/h (1 Bft)
03.09.2012 16:30 16,3 C 85 % 0,0 l/m 1,4 km/h (1 Bft) W-NW 292 13,8 C 16,8 C 5,0 km/h (1 Bft)
03.09.2012 16:35 16,4 C 84 % 0,0 l/m 2,1 km/h (1 Bft) NW 315 13,7 C 16,8 C 2,1 km/h (1 Bft)
03.09.2012 16:40 16,4 C 85 % 0,0 l/m 2,4 km/h (1 Bft) W 270 13,9 C 16,8 C 3,5 km/h (1 Bft)
03.09.2012 16:45 16,4 C 85 % 0,0 l/m 2,3 km/h (1 Bft) W-SW 247 13,9 C 16,8 C 4,2 km/h (1 Bft)
03.09.2012 16:50 16,3 C 84 % 0,0 l/m 3,1 km/h (1 Bft) W 270 13,6 C 16,7 C 3,5 km/h (1 Bft)
03.09.2012 16:55 16,3 C 84 % 0,0 l/m 2,7 km/h (1 Bft) N-NO 22 13,6 C 16,7 C 1,6 km/h (1 Bft)
03.09.2012 17:00 16,4 C 84 % 0,0 l/m 2,3 km/h (1 Bft) N 360 13,7 C 16,7 C 0,0 km/h (0 Bft)
03.09.2012 17:05 16,5 C 84 % 0,0 l/m 1,9 km/h (1 Bft) N 360 13,8 C 16,8 C 1,6 km/h (1 Bft)
03.09.2012 17:10 16,5 C 85 % 0,0 l/m 0,6 km/h (0 Bft) W 270 14,0 C 16,9 C 0,0 km/h (0 Bft)
03.09.2012 17:15 16,5 C 85 % 0,0 l/m 0,6 km/h (0 Bft) W-NW 292 14,0 C 16,9 C 4,2 km/h (1 Bft)
03.09.2012 17:20 16,5 C 85 % 0,0 l/m 1,1 km/h (1 Bft) N 360 14,0 C 17,0 C 0,0 km/h (0 Bft)
03.09.2012 17:25 16,5 C 85 % 0,0 l/m 1,0 km/h (0 Bft) W-SW 247 14,0 C 17,0 C 0,0 km/h (0 Bft)
03.09.2012 17:30 16,4 C 84 % 0,0 l/m 0,6 km/h (0 Bft) W-NW 292 13,7 C 16,9 C 4,0 km/h (1 Bft)
03.09.2012 17:35 16,3 C 84 % 0,0 l/m 1,1 km/h (1 Bft) W-NW 292 13,6 C 16,8 C 0,0 km/h (0 Bft)
03.09.2012 17:40 16,3 C 85 % 0,0 l/m 1,0 km/h (0 Bft) N-NW 337 13,8 C 16,7 C 1,9 km/h (1 Bft)
03.09.2012 17:45 16,3 C 85 % 0,0 l/m 0,6 km/h (0 Bft) W-NW 292 13,8 C 16,6 C 2,9 km/h (1 Bft)
03.09.2012 17:50 16,3 C 85 % 0,0 l/m 1,0 km/h (0 Bft) S 180 13,8 C 16,6 C 0,0 km/h (0 Bft)
03.09.2012 17:55 16,2 C 85 % 0,0 l/m 0,8 km/h (0 Bft) N-NO 22 13,7 C 16,5 C 1,6 km/h (1 Bft)
03.09.2012 18:00 16,1 C 85 % 0,0 l/m 0,3 km/h (0 Bft) N 360 13,6 C 16,4 C 0,0 km/h (0 Bft)
03.09.2012 18:05 16,1 C 85 % 0,0 l/m 0,2 km/h (0 Bft) N 360 13,6 C 16,4 C 0,0 km/h (0 Bft)
03.09.2012 18:10 16,1 C 85 % 0,0 l/m 0,0 km/h (0 Bft) NO 45 13,6 C 16,3 C 0,0 km/h (0 Bft)
03.09.2012 18:15 16,1 C 85 % 0,0 l/m 0,2 km/h (0 Bft) N 360 13,6 C 16,3 C 0,0 km/h (0 Bft)
03.09.2012 18:20 16,0 C 85 % 0,0 l/m 0,0 km/h (0 Bft) N 360 13,5 C 16,2 C 0,0 km/h (0 Bft)
03.09.2012 18:25 16,0 C 86 % 0,0 l/m 0,2 km/h (0 Bft) NO 45 13,7 C 16,2 C 0,0 km/h (0 Bft)
03.09.2012 18:30 16,0 C 86 % 0,0 l/m 0,6 km/h (0 Bft) N 360 13,7 C 16,2 C 3,2 km/h (1 Bft)
03.09.2012 18:35 16,0 C 86 % 0,0 l/m 0,8 km/h (0 Bft) N-NW 337 13,7 C 16,2 C 0,0 km/h (0 Bft)
03.09.2012 18:40 16,0 C 86 % 0,0 l/m 0,5 km/h (0 Bft) N 360 13,7 C 16,2 C 0,0 km/h (0 Bft)
03.09.2012 18:45 15,9 C 86 % 0,0 l/m 0,3 km/h (0 Bft) N-NW 337 13,6 C 16,1 C 0,0 km/h (0 Bft)
03.09.2012 18:50 15,9 C 86 % 0,0 l/m 0,3 km/h (0 Bft) N 360 13,6 C 16,1 C 0,0 km/h (0 Bft)
03.09.2012 18:55 15,9 C 86 % 0,0 l/m 0,0 km/h (0 Bft) N 360 13,6 C 16,0 C 0,0 km/h (0 Bft)
03.09.2012 19:00 15,8 C 87 % 0,0 l/m 0,3 km/h (0 Bft) W 270 13,6 C 16,0 C 0,0 km/h (0 Bft)
03.09.2012 19:05 15,8 C 87 % 0,0 l/m 0,6 km/h (0 Bft) N 360 13,6 C 16,0 C 0,0 km/h (0 Bft)
03.09.2012 19:10 15,8 C 87 % 0,0 l/m 0,3 km/h (0 Bft) N 360 13,6 C 15,9 C 0,0 km/h (0 Bft)
03.09.2012 19:13 15,7 C 87 % 0,0 l/m 0,0 km/h (0 Bft) N 360 13,5 C 15,8 C 0,0 km/h (0 Bft)
03.09.2012 19:18 15,6 C 87 % 0,0 l/m 0,6 km/h (0 Bft) N-NO 22 13,4 C 15,7 C 3,7 km/h (1 Bft)
03.09.2012 19:23 15,6 C 87 % 0,0 l/m 1,1 km/h (1 Bft) W-NW 292 13,4 C 15,7 C 3,1 km/h (1 Bft)
03.09.2012 19:28 15,6 C 87 % 0,0 l/m 1,6 km/h (1 Bft) N-NW 337 13,4 C 15,7 C 0,0 km/h (0 Bft)
03.09.2012 19:33 15,5 C 87 % 0,0 l/m 1,1 km/h (1 Bft) N 360 13,3 C 15,6 C 0,0 km/h (0 Bft)
03.09.2012 19:38 15,5 C 87 % 0,0 l/m 1,0 km/h (0 Bft) N 360 13,3 C 15,6 C 2,6 km/h (1 Bft)
03.09.2012 19:43 15,4 C 87 % 0,0 l/m 1,4 km/h (1 Bft) N-NW 337 13,2 C 15,6 C 2,6 km/h (1 Bft)
03.09.2012 19:48 15,4 C 87 % 0,0 l/m 1,1 km/h (1 Bft) NO 45 13,2 C 15,5 C 1,9 km/h (1 Bft)
03.09.2012 19:53 15,4 C 87 % 0,0 l/m 1,1 km/h (1 Bft) N-NW 337 13,2 C 15,5 C 2,9 km/h (1 Bft)
03.09.2012 19:58 15,4 C 87 % 0,0 l/m 0,8 km/h (0 Bft) N 360 13,2 C 15,4 C 1,6 km/h (1 Bft)
03.09.2012 20:03 15,4 C 87 % 0,0 l/m 0,3 km/h (0 Bft) N-NO 22 13,2 C 15,4 C 0,0 km/h (0 Bft)
03.09.2012 20:08 15,3 C 87 % 0,0 l/m 0,3 km/h (0 Bft) W-NW 292 13,1 C 15,4 C 0,0 km/h (0 Bft)
03.09.2012 20:13 15,3 C 87 % 0,0 l/m 0,3 km/h (0 Bft) NW 315 13,1 C 15,4 C 0,0 km/h (0 Bft)
03.09.2012 20:18 15,2 C 87 % 0,0 l/m 0,2 km/h (0 Bft) W 270 13,0 C 15,2 C 0,0 km/h (0 Bft)
03.09.2012 20:23 15,2 C 87 % 0,0 l/m 0,3 km/h (0 Bft) S-SW 202 13,0 C 15,2 C 0,0 km/h (0 Bft)
03.09.2012 20:28 15,2 C 88 % 0,0 l/m 0,2 km/h (0 Bft) N-NW 337 13,2 C 15,2 C 0,0 km/h (0 Bft)
03.09.2012 20:33 15,2 C 88 % 0,0 l/m 0,0 km/h (0 Bft) N-NO 22 13,2 C 15,2 C 0,0 km/h (0 Bft)
03.09.2012 20:38 15,2 C 88 % 0,0 l/m 0,0 km/h (0 Bft) NO 45 13,2 C 15,2 C 0,0 km/h (0 Bft)
03.09.2012 20:43 15,2 C 88 % 0,0 l/m 0,2 km/h (0 Bft) N 360 13,2 C 15,2 C 0,0 km/h (0 Bft)
03.09.2012 20:48 15,2 C 88 % 0,0 l/m 0,2 km/h (0 Bft) NO 45 13,2 C 15,1 C 0,0 km/h (0 Bft)
03.09.2012 20:55 15,2 C 88 % 0,0 l/m 0,2 km/h (0 Bft) NO 45 13,2 C 15,1 C 0,0 km/h (0 Bft)
03.09.2012 21:00 15,2 C 88 % 0,0 l/m 0,2 km/h (0 Bft) NO 45 13,2 C 15,1 C 0,0 km/h (0 Bft)
03.09.2012 21:05 15,2 C 88 % 0,0 l/m 0,0 km/h (0 Bft) O-NO 67 13,2 C 15,1 C 0,0 km/h (0 Bft)
03.09.2012 21:10 15,1 C 88 % 0,0 l/m 0,0 km/h (0 Bft) W-SW 247 13,1 C 15,1 C 0,0 km/h (0 Bft)
03.09.2012 21:15 15,1 C 88 % 0,0 l/m 0,0 km/h (0 Bft) O-SO 112 13,1 C 15,1 C 0,0 km/h (0 Bft)
03.09.2012 21:20 15,1 C 88 % 0,0 l/m 0,0 km/h (0 Bft) N 360 13,1 C 15,1 C 0,0 km/h (0 Bft)
03.09.2012 21:25 15,1 C 88 % 0,0 l/m 0,0 km/h (0 Bft) N 360 13,1 C 15,1 C 0,0 km/h (0 Bft)
03.09.2012 21:30 15,1 C 88 % 0,0 l/m 0,0 km/h (0 Bft) W-NW 292 13,1 C 15,0 C 0,0 km/h (0 Bft)
03.09.2012 21:35 15,1 C 88 % 0,0 l/m 0,0 km/h (0 Bft) N-NO 22 13,1 C 15,1 C 0,0 km/h (0 Bft)
03.09.2012 21:40 15,1 C 88 % 0,0 l/m 0,0 km/h (0 Bft) N-NO 22 13,1 C 15,1 C 0,0 km/h (0 Bft)
03.09.2012 21:45 15,1 C 88 % 0,0 l/m 0,0 km/h (0 Bft) N-NO 22 13,1 C 15,1 C 0,0 km/h (0 Bft)
03.09.2012 21:50 15,1 C 89 % 0,0 l/m 0,0 km/h (0 Bft) N-NO 22 13,3 C 15,1 C 0,0 km/h (0 Bft)
03.09.2012 21:55 15,1 C 89 % 0,0 l/m 0,2 km/h (0 Bft) W 270 13,3 C 15,1 C 2,6 km/h (1 Bft)
03.09.2012 22:00 15,2 C 89 % 0,0 l/m 0,3 km/h (0 Bft) S-SW 202 13,4 C 15,1 C 0,0 km/h (0 Bft)
03.09.2012 22:05 15,2 C 89 % 0,0 l/m 0,6 km/h (0 Bft) W-NW 292 13,4 C 15,1 C 2,9 km/h (1 Bft)
03.09.2012 22:10 15,1 C 89 % 0,0 l/m 0,3 km/h (0 Bft) W-NW 292 13,3 C 15,1 C 0,0 km/h (0 Bft)
03.09.2012 22:15 15,1 C 89 % 0,0 l/m 0,3 km/h (0 Bft) NO 45 13,3 C 15,1 C 0,0 km/h (0 Bft)
03.09.2012 22:20 15,1 C 89 % 0,0 l/m 0,0 km/h (0 Bft) W-NW 292 13,3 C 15,0 C 0,0 km/h (0 Bft)
03.09.2012 22:25 15,1 C 89 % 0,0 l/m 0,0 km/h (0 Bft) N 360 13,3 C 15,0 C 0,0 km/h (0 Bft)
03.09.2012 22:30 15,1 C 89 % 0,0 l/m 0,0 km/h (0 Bft) N-NO 22 13,3 C 15,0 C 0,0 km/h (0 Bft)
03.09.2012 22:35 15,0 C 89 % 0,0 l/m 0,0 km/h (0 Bft) W-NW 292 13,2 C 15,0 C 0,0 km/h (0 Bft)
_ Min-Zeit 06:50 14:40 - 22:35 - - 06:50 06:55 22:35
Minimum _ 12,7 C 79 % - 0,0 km/h (0 Bft) - - 11,9 C 12,7 C 0,0 km/h (0 Bft)
_ Max-Zeit 14:35 08:20 22:35 15:50 - - 13:35 13:50 15:50
Maximum _ 17,3 C 95 % 0,0 l/m 4,8 km/h
W-SW (1 Bft)
- - 14,7 C 18,6 C 11,9 km/h
W-SW (2 Bft)
Durchschnitt _ 14,4 C 90 % #0,0 l/m 1,3 km/h (1 Bft) W-NW - 12,9 C 14,6 C 1,9 km/h (1 Bft)